sensor_id;sensor_type;location;lat;lon;timestamp;P1;durP1;ratioP1;P2;durP2;ratioP2
37199;SDS011;23096;50.892;16.746;2022-07-24T00:00:25;6.70;;;6.10;;
37199;SDS011;23096;50.892;16.746;2022-07-24T00:02:51;7.20;;;6.50;;
37199;SDS011;23096;50.892;16.746;2022-07-24T00:05:18;12.43;;;6.22;;
37199;SDS011;23096;50.892;16.746;2022-07-24T00:07:44;7.35;;;5.97;;
37199;SDS011;23096;50.892;16.746;2022-07-24T00:10:10;6.70;;;6.00;;
37199;SDS011;23096;50.892;16.746;2022-07-24T00:12:37;7.10;;;5.55;;
37199;SDS011;23096;50.892;16.746;2022-07-24T00:15:04;8.33;;;6.20;;
37199;SDS011;23096;50.892;16.746;2022-07-24T00:17:31;6.17;;;5.58;;
37199;SDS011;23096;50.892;16.746;2022-07-24T00:19:57;6.08;;;5.37;;
37199;SDS011;23096;50.892;16.746;2022-07-24T00:22:24;7.17;;;5.95;;
37199;SDS011;23096;50.892;16.746;2022-07-24T00:24:50;7.75;;;6.00;;
37199;SDS011;23096;50.892;16.746;2022-07-24T00:27:17;7.75;;;5.80;;
37199;SDS011;23096;50.892;16.746;2022-07-24T00:29:43;9.93;;;5.90;;
37199;SDS011;23096;50.892;16.746;2022-07-24T00:32:10;7.05;;;6.05;;
37199;SDS011;23096;50.892;16.746;2022-07-24T00:34:36;7.10;;;6.25;;
37199;SDS011;23096;50.892;16.746;2022-07-24T00:37:02;7.55;;;5.75;;
37199;SDS011;23096;50.892;16.746;2022-07-24T00:39:28;7.12;;;6.42;;
37199;SDS011;23096;50.892;16.746;2022-07-24T00:41:54;6.60;;;5.92;;
37199;SDS011;23096;50.892;16.746;2022-07-24T00:44:20;6.97;;;6.12;;
37199;SDS011;23096;50.892;16.746;2022-07-24T00:46:46;10.15;;;5.72;;
37199;SDS011;23096;50.892;16.746;2022-07-24T00:49:14;6.85;;;6.12;;
37199;SDS011;23096;50.892;16.746;2022-07-24T00:51:43;6.05;;;5.45;;
37199;SDS011;23096;50.892;16.746;2022-07-24T00:54:14;8.23;;;6.08;;
37199;SDS011;23096;50.892;16.746;2022-07-24T00:56:42;6.15;;;5.28;;
37199;SDS011;23096;50.892;16.746;2022-07-24T00:59:10;5.90;;;5.30;;
37199;SDS011;23096;50.892;16.746;2022-07-24T01:01:37;5.37;;;4.87;;
37199;SDS011;23096;50.892;16.746;2022-07-24T01:04:04;6.22;;;5.62;;
37199;SDS011;23096;50.892;16.746;2022-07-24T01:06:30;7.65;;;5.50;;
37199;SDS011;23096;50.892;16.746;2022-07-24T01:08:56;5.97;;;5.15;;
37199;SDS011;23096;50.892;16.746;2022-07-24T01:11:23;6.12;;;5.47;;
37199;SDS011;23096;50.892;16.746;2022-07-24T01:13:50;5.65;;;5.08;;
37199;SDS011;23096;50.892;16.746;2022-07-24T01:16:16;5.42;;;4.85;;
37199;SDS011;23096;50.892;16.746;2022-07-24T01:18:43;5.97;;;5.08;;
37199;SDS011;23096;50.892;16.746;2022-07-24T01:21:10;6.97;;;5.28;;
37199;SDS011;23096;50.892;16.746;2022-07-24T01:23:36;7.30;;;5.72;;
37199;SDS011;23096;50.892;16.746;2022-07-24T01:26:03;6.03;;;4.95;;
37199;SDS011;23096;50.892;16.746;2022-07-24T01:28:34;9.25;;;5.60;;
37199;SDS011;23096;50.892;16.746;2022-07-24T01:31:01;6.47;;;5.42;;
37199;SDS011;23096;50.892;16.746;2022-07-24T01:33:29;8.68;;;4.83;;
37199;SDS011;23096;50.892;16.746;2022-07-24T01:35:56;6.28;;;5.15;;
37199;SDS011;23096;50.892;16.746;2022-07-24T01:38:22;5.28;;;4.78;;
37199;SDS011;23096;50.892;16.746;2022-07-24T01:40:51;6.40;;;5.20;;
37199;SDS011;23096;50.892;16.746;2022-07-24T01:43:17;8.95;;;5.22;;
37199;SDS011;23096;50.892;16.746;2022-07-24T01:45:45;6.37;;;5.78;;
37199;SDS011;23096;50.892;16.746;2022-07-24T01:48:11;5.83;;;4.90;;
37199;SDS011;23096;50.892;16.746;2022-07-24T01:50:37;6.05;;;5.25;;
37199;SDS011;23096;50.892;16.746;2022-07-24T01:53:03;5.37;;;4.80;;
37199;SDS011;23096;50.892;16.746;2022-07-24T01:55:29;13.00;;;6.20;;
37199;SDS011;23096;50.892;16.746;2022-07-24T01:57:56;7.05;;;5.00;;
37199;SDS011;23096;50.892;16.746;2022-07-24T02:00:22;7.10;;;5.00;;
37199;SDS011;23096;50.892;16.746;2022-07-24T02:02:49;5.87;;;5.10;;
37199;SDS011;23096;50.892;16.746;2022-07-24T02:05:15;6.10;;;5.45;;
37199;SDS011;23096;50.892;16.746;2022-07-24T02:07:42;7.28;;;5.05;;
37199;SDS011;23096;50.892;16.746;2022-07-24T02:10:10;5.60;;;5.05;;
37199;SDS011;23096;50.892;16.746;2022-07-24T02:12:39;6.60;;;5.10;;
37199;SDS011;23096;50.892;16.746;2022-07-24T02:15:05;5.70;;;5.20;;
37199;SDS011;23096;50.892;16.746;2022-07-24T02:17:33;6.08;;;5.47;;
37199;SDS011;23096;50.892;16.746;2022-07-24T02:19:59;7.10;;;5.50;;
37199;SDS011;23096;50.892;16.746;2022-07-24T02:22:25;7.17;;;6.25;;
37199;SDS011;23096;50.892;16.746;2022-07-24T02:24:51;6.35;;;5.35;;
37199;SDS011;23096;50.892;16.746;2022-07-24T02:27:17;8.90;;;5.85;;
37199;SDS011;23096;50.892;16.746;2022-07-24T02:29:43;9.73;;;6.25;;
37199;SDS011;23096;50.892;16.746;2022-07-24T02:32:10;7.85;;;6.58;;
37199;SDS011;23096;50.892;16.746;2022-07-24T02:34:36;11.28;;;7.00;;
37199;SDS011;23096;50.892;16.746;2022-07-24T02:37:02;7.67;;;6.87;;
37199;SDS011;23096;50.892;16.746;2022-07-24T02:39:28;7.53;;;6.08;;
37199;SDS011;23096;50.892;16.746;2022-07-24T02:41:55;7.20;;;6.45;;
37199;SDS011;23096;50.892;16.746;2022-07-24T02:44:21;8.00;;;6.12;;
37199;SDS011;23096;50.892;16.746;2022-07-24T02:46:47;7.05;;;6.35;;
37199;SDS011;23096;50.892;16.746;2022-07-24T02:49:13;10.25;;;6.95;;
37199;SDS011;23096;50.892;16.746;2022-07-24T02:51:39;9.48;;;7.70;;
37199;SDS011;23096;50.892;16.746;2022-07-24T02:54:05;10.45;;;7.87;;
37199;SDS011;23096;50.892;16.746;2022-07-24T02:56:31;8.30;;;6.97;;
37199;SDS011;23096;50.892;16.746;2022-07-24T02:58:58;11.95;;;7.25;;
37199;SDS011;23096;50.892;16.746;2022-07-24T03:01:24;9.28;;;6.85;;
37199;SDS011;23096;50.892;16.746;2022-07-24T03:03:51;11.45;;;7.33;;
37199;SDS011;23096;50.892;16.746;2022-07-24T03:06:17;8.68;;;7.80;;
37199;SDS011;23096;50.892;16.746;2022-07-24T03:08:43;8.20;;;7.08;;
37199;SDS011;23096;50.892;16.746;2022-07-24T03:11:09;9.88;;;7.75;;
37199;SDS011;23096;50.892;16.746;2022-07-24T03:13:35;7.62;;;6.75;;
37199;SDS011;23096;50.892;16.746;2022-07-24T03:16:01;8.93;;;7.35;;
37199;SDS011;23096;50.892;16.746;2022-07-24T03:18:28;7.85;;;7.05;;
37199;SDS011;23096;50.892;16.746;2022-07-24T03:20:54;9.63;;;6.85;;
37199;SDS011;23096;50.892;16.746;2022-07-24T03:23:20;10.43;;;7.75;;
37199;SDS011;23096;50.892;16.746;2022-07-24T03:25:46;8.83;;;7.75;;
37199;SDS011;23096;50.892;16.746;2022-07-24T03:28:12;11.08;;;7.55;;
37199;SDS011;23096;50.892;16.746;2022-07-24T03:30:38;10.50;;;7.00;;
37199;SDS011;23096;50.892;16.746;2022-07-24T03:33:05;11.50;;;6.70;;
37199;SDS011;23096;50.892;16.746;2022-07-24T03:35:31;8.98;;;7.30;;
37199;SDS011;23096;50.892;16.746;2022-07-24T03:37:57;9.40;;;6.72;;
37199;SDS011;23096;50.892;16.746;2022-07-24T03:40:23;13.68;;;7.85;;
37199;SDS011;23096;50.892;16.746;2022-07-24T03:42:49;8.58;;;7.45;;
37199;SDS011;23096;50.892;16.746;2022-07-24T03:45:16;8.73;;;7.72;;
37199;SDS011;23096;50.892;16.746;2022-07-24T03:47:42;9.10;;;7.90;;
37199;SDS011;23096;50.892;16.746;2022-07-24T03:50:08;8.33;;;7.42;;
37199;SDS011;23096;50.892;16.746;2022-07-24T03:52:35;8.40;;;7.60;;
37199;SDS011;23096;50.892;16.746;2022-07-24T03:55:01;9.13;;;6.75;;
37199;SDS011;23096;50.892;16.746;2022-07-24T03:57:27;9.05;;;7.83;;
37199;SDS011;23096;50.892;16.746;2022-07-24T03:59:53;8.85;;;7.37;;
37199;SDS011;23096;50.892;16.746;2022-07-24T04:02:19;9.28;;;7.97;;
37199;SDS011;23096;50.892;16.746;2022-07-24T04:04:45;9.85;;;6.62;;
37199;SDS011;23096;50.892;16.746;2022-07-24T04:07:12;8.38;;;7.55;;
37199;SDS011;23096;50.892;16.746;2022-07-24T04:09:38;8.60;;;7.58;;
37199;SDS011;23096;50.892;16.746;2022-07-24T04:12:04;8.80;;;7.50;;
37199;SDS011;23096;50.892;16.746;2022-07-24T04:14:31;11.55;;;7.10;;
37199;SDS011;23096;50.892;16.746;2022-07-24T04:16:57;11.57;;;7.67;;
37199;SDS011;23096;50.892;16.746;2022-07-24T04:19:24;9.60;;;7.60;;
37199;SDS011;23096;50.892;16.746;2022-07-24T04:21:50;9.33;;;8.23;;
37199;SDS011;23096;50.892;16.746;2022-07-24T04:24:16;13.48;;;7.87;;
37199;SDS011;23096;50.892;16.746;2022-07-24T04:26:42;9.60;;;8.50;;
37199;SDS011;23096;50.892;16.746;2022-07-24T04:29:08;8.10;;;7.12;;
37199;SDS011;23096;50.892;16.746;2022-07-24T04:31:34;8.13;;;7.33;;
37199;SDS011;23096;50.892;16.746;2022-07-24T04:34:00;7.80;;;7.00;;
37199;SDS011;23096;50.892;16.746;2022-07-24T04:36:26;8.58;;;7.78;;
37199;SDS011;23096;50.892;16.746;2022-07-24T04:38:52;10.72;;;6.97;;
37199;SDS011;23096;50.892;16.746;2022-07-24T04:41:18;12.15;;;7.50;;
37199;SDS011;23096;50.892;16.746;2022-07-24T04:43:45;9.10;;;7.28;;
37199;SDS011;23096;50.892;16.746;2022-07-24T04:46:11;9.53;;;7.35;;
37199;SDS011;23096;50.892;16.746;2022-07-24T04:48:38;9.13;;;7.37;;
37199;SDS011;23096;50.892;16.746;2022-07-24T04:51:04;9.68;;;7.03;;
37199;SDS011;23096;50.892;16.746;2022-07-24T04:53:30;7.40;;;6.70;;
37199;SDS011;23096;50.892;16.746;2022-07-24T04:55:56;11.95;;;7.30;;
37199;SDS011;23096;50.892;16.746;2022-07-24T04:58:23;10.68;;;7.47;;
37199;SDS011;23096;50.892;16.746;2022-07-24T05:00:51;11.40;;;7.83;;
37199;SDS011;23096;50.892;16.746;2022-07-24T05:03:17;9.70;;;7.62;;
37199;SDS011;23096;50.892;16.746;2022-07-24T05:05:44;10.13;;;7.62;;
37199;SDS011;23096;50.892;16.746;2022-07-24T05:08:10;10.60;;;7.12;;
37199;SDS011;23096;50.892;16.746;2022-07-24T05:10:36;10.20;;;6.83;;
37199;SDS011;23096;50.892;16.746;2022-07-24T05:13:04;8.05;;;6.95;;
37199;SDS011;23096;50.892;16.746;2022-07-24T05:15:30;9.10;;;7.22;;
37199;SDS011;23096;50.892;16.746;2022-07-24T05:17:56;8.95;;;6.78;;
37199;SDS011;23096;50.892;16.746;2022-07-24T05:20:22;7.25;;;5.72;;
37199;SDS011;23096;50.892;16.746;2022-07-24T05:22:48;6.95;;;6.12;;
37199;SDS011;23096;50.892;16.746;2022-07-24T05:25:14;7.80;;;6.65;;
37199;SDS011;23096;50.892;16.746;2022-07-24T05:27:40;7.60;;;6.33;;
37199;SDS011;23096;50.892;16.746;2022-07-24T05:30:06;9.43;;;6.17;;
37199;SDS011;23096;50.892;16.746;2022-07-24T05:32:33;10.63;;;7.53;;
37199;SDS011;23096;50.892;16.746;2022-07-24T05:35:00;9.10;;;8.20;;
37199;SDS011;23096;50.892;16.746;2022-07-24T05:37:26;9.08;;;6.42;;
37199;SDS011;23096;50.892;16.746;2022-07-24T05:39:53;8.60;;;6.28;;
37199;SDS011;23096;50.892;16.746;2022-07-24T05:42:19;16.05;;;10.72;;
37199;SDS011;23096;50.892;16.746;2022-07-24T05:44:45;7.90;;;5.47;;
37199;SDS011;23096;50.892;16.746;2022-07-24T05:47:12;11.10;;;6.92;;
37199;SDS011;23096;50.892;16.746;2022-07-24T05:49:38;7.80;;;5.90;;
37199;SDS011;23096;50.892;16.746;2022-07-24T05:52:04;8.33;;;5.87;;
37199;SDS011;23096;50.892;16.746;2022-07-24T05:54:30;8.70;;;6.30;;
37199;SDS011;23096;50.892;16.746;2022-07-24T05:56:56;6.83;;;5.83;;
37199;SDS011;23096;50.892;16.746;2022-07-24T05:59:22;6.90;;;5.20;;
37199;SDS011;23096;50.892;16.746;2022-07-24T06:01:48;6.33;;;5.50;;
37199;SDS011;23096;50.892;16.746;2022-07-24T06:04:14;8.50;;;5.97;;
37199;SDS011;23096;50.892;16.746;2022-07-24T06:06:41;6.70;;;6.00;;
37199;SDS011;23096;50.892;16.746;2022-07-24T06:09:07;7.37;;;6.33;;
37199;SDS011;23096;50.892;16.746;2022-07-24T06:11:33;9.68;;;5.95;;
37199;SDS011;23096;50.892;16.746;2022-07-24T06:13:59;9.75;;;5.70;;
37199;SDS011;23096;50.892;16.746;2022-07-24T06:16:25;7.20;;;5.15;;
37199;SDS011;23096;50.892;16.746;2022-07-24T06:18:51;10.10;;;5.05;;
37199;SDS011;23096;50.892;16.746;2022-07-24T06:21:17;6.95;;;4.78;;
37199;SDS011;23096;50.892;16.746;2022-07-24T06:23:43;7.80;;;4.35;;
37199;SDS011;23096;50.892;16.746;2022-07-24T06:26:09;5.92;;;4.60;;
37199;SDS011;23096;50.892;16.746;2022-07-24T06:28:36;10.43;;;5.97;;
37199;SDS011;23096;50.892;16.746;2022-07-24T06:31:02;5.10;;;4.60;;
37199;SDS011;23096;50.892;16.746;2022-07-24T06:33:28;4.78;;;4.05;;
37199;SDS011;23096;50.892;16.746;2022-07-24T06:35:54;5.35;;;3.98;;
37199;SDS011;23096;50.892;16.746;2022-07-24T06:38:21;4.65;;;3.45;;
37199;SDS011;23096;50.892;16.746;2022-07-24T06:40:47;11.57;;;3.12;;
37199;SDS011;23096;50.892;16.746;2022-07-24T06:43:13;3.20;;;2.70;;
37199;SDS011;23096;50.892;16.746;2022-07-24T06:45:39;2.15;;;1.70;;
37199;SDS011;23096;50.892;16.746;2022-07-24T06:48:06;6.33;;;2.20;;
37199;SDS011;23096;50.892;16.746;2022-07-24T06:50:32;2.83;;;1.75;;
37199;SDS011;23096;50.892;16.746;2022-07-24T06:52:58;2.42;;;1.60;;
37199;SDS011;23096;50.892;16.746;2022-07-24T06:55:24;1.70;;;1.00;;
37199;SDS011;23096;50.892;16.746;2022-07-24T06:57:50;1.65;;;1.20;;
37199;SDS011;23096;50.892;16.746;2022-07-24T07:00:16;1.87;;;1.30;;
37199;SDS011;23096;50.892;16.746;2022-07-24T07:02:43;2.95;;;1.07;;
37199;SDS011;23096;50.892;16.746;2022-07-24T07:05:09;3.00;;;1.07;;
37199;SDS011;23096;50.892;16.746;2022-07-24T07:07:36;4.55;;;1.10;;
37199;SDS011;23096;50.892;16.746;2022-07-24T07:10:03;4.20;;;1.50;;
37199;SDS011;23096;50.892;16.746;2022-07-24T07:12:31;2.45;;;1.47;;
37199;SDS011;23096;50.892;16.746;2022-07-24T07:14:58;3.20;;;1.20;;
37199;SDS011;23096;50.892;16.746;2022-07-24T07:17:25;2.45;;;1.45;;
37199;SDS011;23096;50.892;16.746;2022-07-24T07:19:51;2.47;;;1.27;;
37199;SDS011;23096;50.892;16.746;2022-07-24T07:22:17;1.72;;;1.10;;
37199;SDS011;23096;50.892;16.746;2022-07-24T07:24:43;2.87;;;1.17;;
37199;SDS011;23096;50.892;16.746;2022-07-24T07:27:09;2.60;;;1.20;;
37199;SDS011;23096;50.892;16.746;2022-07-24T07:29:35;1.30;;;1.17;;
37199;SDS011;23096;50.892;16.746;2022-07-24T07:32:02;1.85;;;1.37;;
37199;SDS011;23096;50.892;16.746;2022-07-24T07:34:28;2.70;;;1.17;;
37199;SDS011;23096;50.892;16.746;2022-07-24T07:36:54;2.90;;;1.32;;
37199;SDS011;23096;50.892;16.746;2022-07-24T07:39:20;2.35;;;1.62;;
37199;SDS011;23096;50.892;16.746;2022-07-24T07:41:47;1.30;;;1.22;;
37199;SDS011;23096;50.892;16.746;2022-07-24T07:44:15;1.72;;;1.62;;
37199;SDS011;23096;50.892;16.746;2022-07-24T07:46:41;3.45;;;1.60;;
37199;SDS011;23096;50.892;16.746;2022-07-24T07:49:09;4.65;;;1.62;;
37199;SDS011;23096;50.892;16.746;2022-07-24T07:51:35;1.75;;;1.27;;
37199;SDS011;23096;50.892;16.746;2022-07-24T07:54:01;1.27;;;1.17;;
37199;SDS011;23096;50.892;16.746;2022-07-24T07:56:27;1.35;;;1.22;;
37199;SDS011;23096;50.892;16.746;2022-07-24T07:58:55;2.25;;;1.45;;
37199;SDS011;23096;50.892;16.746;2022-07-24T08:01:22;1.90;;;0.98;;
37199;SDS011;23096;50.892;16.746;2022-07-24T08:03:48;2.70;;;1.30;;
37199;SDS011;23096;50.892;16.746;2022-07-24T08:06:14;5.37;;;1.87;;
37199;SDS011;23096;50.892;16.746;2022-07-24T08:08:40;3.42;;;1.60;;
37199;SDS011;23096;50.892;16.746;2022-07-24T08:11:06;1.92;;;1.70;;
37199;SDS011;23096;50.892;16.746;2022-07-24T08:13:32;1.05;;;1.02;;
37199;SDS011;23096;50.892;16.746;2022-07-24T08:15:59;2.90;;;1.32;;
37199;SDS011;23096;50.892;16.746;2022-07-24T08:18:25;2.02;;;1.10;;
37199;SDS011;23096;50.892;16.746;2022-07-24T08:20:51;2.30;;;0.98;;
37199;SDS011;23096;50.892;16.746;2022-07-24T08:23:17;3.50;;;1.00;;
37199;SDS011;23096;50.892;16.746;2022-07-24T08:25:43;0.90;;;0.90;;
37199;SDS011;23096;50.892;16.746;2022-07-24T08:28:09;1.27;;;1.07;;
37199;SDS011;23096;50.892;16.746;2022-07-24T08:30:35;2.17;;;0.90;;
37199;SDS011;23096;50.892;16.746;2022-07-24T08:33:01;1.37;;;0.95;;
37199;SDS011;23096;50.892;16.746;2022-07-24T08:35:27;0.88;;;0.80;;
37199;SDS011;23096;50.892;16.746;2022-07-24T08:37:54;1.20;;;0.90;;
37199;SDS011;23096;50.892;16.746;2022-07-24T08:40:21;2.33;;;1.37;;
37199;SDS011;23096;50.892;16.746;2022-07-24T08:42:48;2.62;;;1.60;;
37199;SDS011;23096;50.892;16.746;2022-07-24T08:45:14;3.90;;;0.80;;
37199;SDS011;23096;50.892;16.746;2022-07-24T08:47:41;2.17;;;0.82;;
37199;SDS011;23096;50.892;16.746;2022-07-24T08:50:08;1.52;;;1.00;;
37199;SDS011;23096;50.892;16.746;2022-07-24T08:52:35;0.90;;;0.90;;
37199;SDS011;23096;50.892;16.746;2022-07-24T08:55:02;1.75;;;0.95;;
37199;SDS011;23096;50.892;16.746;2022-07-24T08:57:28;1.12;;;0.90;;
37199;SDS011;23096;50.892;16.746;2022-07-24T08:59:55;1.27;;;1.17;;
37199;SDS011;23096;50.892;16.746;2022-07-24T09:02:21;2.67;;;1.22;;
37199;SDS011;23096;50.892;16.746;2022-07-24T09:04:47;2.05;;;1.12;;
37199;SDS011;23096;50.892;16.746;2022-07-24T09:10:03;2.65;;;1.15;;
37199;SDS011;23096;50.892;16.746;2022-07-24T09:12:32;4.20;;;0.90;;
37199;SDS011;23096;50.892;16.746;2022-07-24T09:15:09;3.08;;;0.90;;
37199;SDS011;23096;50.892;16.746;2022-07-24T09:20:22;1.82;;;1.00;;
37199;SDS011;23096;50.892;16.746;2022-07-24T09:22:52;2.03;;;1.23;;
37199;SDS011;23096;50.892;16.746;2022-07-24T09:25:25;2.72;;;0.85;;
37199;SDS011;23096;50.892;16.746;2022-07-24T09:27:54;3.70;;;0.90;;
37199;SDS011;23096;50.892;16.746;2022-07-24T09:30:29;1.02;;;0.90;;
37199;SDS011;23096;50.892;16.746;2022-07-24T09:33:06;1.62;;;1.10;;
37199;SDS011;23096;50.892;16.746;2022-07-24T09:35:36;1.42;;;1.22;;
37199;SDS011;23096;50.892;16.746;2022-07-24T09:38:09;0.85;;;0.78;;
37199;SDS011;23096;50.892;16.746;2022-07-24T09:40:39;1.35;;;0.88;;
37199;SDS011;23096;50.892;16.746;2022-07-24T09:45:58;2.12;;;1.45;;
37199;SDS011;23096;50.892;16.746;2022-07-24T09:53:41;1.12;;;0.85;;
37199;SDS011;23096;50.892;16.746;2022-07-24T09:56:11;1.75;;;0.80;;
37199;SDS011;23096;50.892;16.746;2022-07-24T09:58:49;4.22;;;0.75;;
37199;SDS011;23096;50.892;16.746;2022-07-24T10:01:16;1.50;;;1.00;;
37199;SDS011;23096;50.892;16.746;2022-07-24T10:03:45;1.47;;;1.02;;
37199;SDS011;23096;50.892;16.746;2022-07-24T10:06:14;1.92;;;1.00;;
37199;SDS011;23096;50.892;16.746;2022-07-24T10:08:44;3.12;;;0.98;;
37199;SDS011;23096;50.892;16.746;2022-07-24T10:11:13;2.52;;;1.10;;
37199;SDS011;23096;50.892;16.746;2022-07-24T10:13:41;1.57;;;0.95;;
37199;SDS011;23096;50.892;16.746;2022-07-24T10:26:54;3.70;;;0.82;;
37199;SDS011;23096;50.892;16.746;2022-07-24T10:29:28;0.88;;;0.80;;
37199;SDS011;23096;50.892;16.746;2022-07-24T10:31:58;2.17;;;1.45;;
37199;SDS011;23096;50.892;16.746;2022-07-24T10:40:20;1.75;;;0.70;;
37199;SDS011;23096;50.892;16.746;2022-07-24T10:45:42;0.93;;;0.80;;
37199;SDS011;23096;50.892;16.746;2022-07-24T10:58:51;4.70;;;0.80;;
37199;SDS011;23096;50.892;16.746;2022-07-24T11:01:35;3.35;;;1.00;;
37199;SDS011;23096;50.892;16.746;2022-07-24T11:12:30;0.82;;;0.78;;
37199;SDS011;23096;50.892;16.746;2022-07-24T11:14:59;1.85;;;0.80;;
37199;SDS011;23096;50.892;16.746;2022-07-24T11:17:46;2.92;;;0.72;;
37199;SDS011;23096;50.892;16.746;2022-07-24T11:20:14;0.90;;;0.80;;
37199;SDS011;23096;50.892;16.746;2022-07-24T11:22:49;2.77;;;1.27;;
37199;SDS011;23096;50.892;16.746;2022-07-24T11:25:21;1.77;;;0.93;;
37199;SDS011;23096;50.892;16.746;2022-07-24T11:27:54;1.92;;;0.90;;
37199;SDS011;23096;50.892;16.746;2022-07-24T11:30:37;1.05;;;0.80;;
37199;SDS011;23096;50.892;16.746;2022-07-24T11:33:11;2.33;;;0.80;;
37199;SDS011;23096;50.892;16.746;2022-07-24T11:35:42;0.75;;;0.70;;
37199;SDS011;23096;50.892;16.746;2022-07-24T11:38:09;0.82;;;0.80;;
37199;SDS011;23096;50.892;16.746;2022-07-24T11:40:35;2.50;;;1.12;;
37199;SDS011;23096;50.892;16.746;2022-07-24T11:43:03;6.10;;;1.52;;
37199;SDS011;23096;50.892;16.746;2022-07-24T11:45:32;3.05;;;1.07;;
37199;SDS011;23096;50.892;16.746;2022-07-24T11:47:58;5.72;;;1.25;;
37199;SDS011;23096;50.892;16.746;2022-07-24T11:50:25;0.82;;;0.80;;
37199;SDS011;23096;50.892;16.746;2022-07-24T11:52:52;0.60;;;0.60;;
37199;SDS011;23096;50.892;16.746;2022-07-24T11:55:21;1.37;;;0.70;;
37199;SDS011;23096;50.892;16.746;2022-07-24T11:57:51;1.00;;;0.70;;
37199;SDS011;23096;50.892;16.746;2022-07-24T12:00:21;1.55;;;0.60;;
37199;SDS011;23096;50.892;16.746;2022-07-24T12:02:53;1.55;;;0.60;;
37199;SDS011;23096;50.892;16.746;2022-07-24T12:05:29;1.70;;;0.60;;
37199;SDS011;23096;50.892;16.746;2022-07-24T12:07:59;1.15;;;0.98;;
37199;SDS011;23096;50.892;16.746;2022-07-24T12:10:27;1.70;;;0.80;;
37199;SDS011;23096;50.892;16.746;2022-07-24T12:12:54;0.65;;;0.50;;
37199;SDS011;23096;50.892;16.746;2022-07-24T12:15:23;1.47;;;0.80;;
37199;SDS011;23096;50.892;16.746;2022-07-24T12:18:01;0.75;;;0.70;;
37199;SDS011;23096;50.892;16.746;2022-07-24T12:20:36;2.35;;;0.70;;
37199;SDS011;23096;50.892;16.746;2022-07-24T12:23:05;1.65;;;0.62;;
37199;SDS011;23096;50.892;16.746;2022-07-24T12:25:35;0.93;;;0.90;;
37199;SDS011;23096;50.892;16.746;2022-07-24T12:28:12;3.17;;;0.88;;
37199;SDS011;23096;50.892;16.746;2022-07-24T12:30:42;1.10;;;1.02;;
37199;SDS011;23096;50.892;16.746;2022-07-24T12:38:31;0.88;;;0.60;;
37199;SDS011;23096;50.892;16.746;2022-07-24T12:41:12;0.50;;;0.50;;
37199;SDS011;23096;50.892;16.746;2022-07-24T12:43:49;2.75;;;0.90;;
37199;SDS011;23096;50.892;16.746;2022-07-24T12:46:34;2.95;;;0.80;;
37199;SDS011;23096;50.892;16.746;2022-07-24T12:49:03;1.72;;;0.70;;
37199;SDS011;23096;50.892;16.746;2022-07-24T12:51:45;4.28;;;0.70;;
37199;SDS011;23096;50.892;16.746;2022-07-24T12:56:57;4.35;;;2.30;;
37199;SDS011;23096;50.892;16.746;2022-07-24T13:02:03;0.60;;;0.60;;
37199;SDS011;23096;50.892;16.746;2022-07-24T13:07:07;0.93;;;0.80;;
37199;SDS011;23096;50.892;16.746;2022-07-24T13:09:34;0.80;;;0.65;;
37199;SDS011;23096;50.892;16.746;2022-07-24T13:12:02;2.42;;;0.93;;
37199;SDS011;23096;50.892;16.746;2022-07-24T13:14:30;0.88;;;0.70;;
37199;SDS011;23096;50.892;16.746;2022-07-24T13:17:01;0.88;;;0.70;;
37199;SDS011;23096;50.892;16.746;2022-07-24T13:19:39;0.62;;;0.60;;
37199;SDS011;23096;50.892;16.746;2022-07-24T13:22:10;2.37;;;1.07;;
37199;SDS011;23096;50.892;16.746;2022-07-24T13:24:37;3.42;;;0.80;;
37199;SDS011;23096;50.892;16.746;2022-07-24T13:27:07;0.65;;;0.65;;
37199;SDS011;23096;50.892;16.746;2022-07-24T13:29:35;1.72;;;1.12;;
37199;SDS011;23096;50.892;16.746;2022-07-24T13:32:02;3.17;;;0.82;;
37199;SDS011;23096;50.892;16.746;2022-07-24T13:34:30;2.15;;;0.90;;
37199;SDS011;23096;50.892;16.746;2022-07-24T13:36:56;2.47;;;0.80;;
37199;SDS011;23096;50.892;16.746;2022-07-24T13:39:23;1.32;;;0.80;;
37199;SDS011;23096;50.892;16.746;2022-07-24T13:41:49;2.22;;;1.05;;
37199;SDS011;23096;50.892;16.746;2022-07-24T13:44:16;1.50;;;0.75;;
37199;SDS011;23096;50.892;16.746;2022-07-24T13:46:42;0.98;;;0.98;;
37199;SDS011;23096;50.892;16.746;2022-07-24T13:49:09;1.80;;;0.82;;
37199;SDS011;23096;50.892;16.746;2022-07-24T13:51:35;1.62;;;0.80;;
37199;SDS011;23096;50.892;16.746;2022-07-24T13:54:02;1.35;;;1.05;;
37199;SDS011;23096;50.892;16.746;2022-07-24T13:56:29;2.33;;;1.00;;
37199;SDS011;23096;50.892;16.746;2022-07-24T13:58:56;1.60;;;0.78;;
37199;SDS011;23096;50.892;16.746;2022-07-24T14:13:22;1.37;;;1.20;;
37199;SDS011;23096;50.892;16.746;2022-07-24T14:15:48;1.15;;;1.05;;
37199;SDS011;23096;50.892;16.746;2022-07-24T14:18:14;0.85;;;0.70;;
37199;SDS011;23096;50.892;16.746;2022-07-24T14:20:40;0.90;;;0.68;;
37199;SDS011;23096;50.892;16.746;2022-07-24T14:23:06;1.30;;;0.72;;
37199;SDS011;23096;50.892;16.746;2022-07-24T14:25:33;0.90;;;0.90;;
37199;SDS011;23096;50.892;16.746;2022-07-24T14:27:59;3.42;;;0.98;;
37199;SDS011;23096;50.892;16.746;2022-07-24T14:30:25;1.17;;;0.65;;
37199;SDS011;23096;50.892;16.746;2022-07-24T14:32:51;1.50;;;0.80;;
37199;SDS011;23096;50.892;16.746;2022-07-24T14:35:17;1.32;;;0.70;;
37199;SDS011;23096;50.892;16.746;2022-07-24T14:37:43;0.70;;;0.70;;
37199;SDS011;23096;50.892;16.746;2022-07-24T14:40:10;0.98;;;0.80;;
37199;SDS011;23096;50.892;16.746;2022-07-24T14:42:36;2.98;;;0.80;;
37199;SDS011;23096;50.892;16.746;2022-07-24T14:45:03;2.00;;;1.02;;
37199;SDS011;23096;50.892;16.746;2022-07-24T14:47:30;1.95;;;0.88;;
37199;SDS011;23096;50.892;16.746;2022-07-24T14:49:56;3.40;;;0.65;;
37199;SDS011;23096;50.892;16.746;2022-07-24T14:52:23;1.22;;;0.88;;
37199;SDS011;23096;50.892;16.746;2022-07-24T14:54:49;1.85;;;0.80;;
37199;SDS011;23096;50.892;16.746;2022-07-24T14:57:16;0.80;;;0.75;;
37199;SDS011;23096;50.892;16.746;2022-07-24T14:59:43;0.80;;;0.80;;
37199;SDS011;23096;50.892;16.746;2022-07-24T15:02:09;1.10;;;0.90;;
37199;SDS011;23096;50.892;16.746;2022-07-24T15:04:37;0.78;;;0.70;;
37199;SDS011;23096;50.892;16.746;2022-07-24T15:07:03;1.25;;;0.75;;
37199;SDS011;23096;50.892;16.746;2022-07-24T15:09:29;0.95;;;0.60;;
37199;SDS011;23096;50.892;16.746;2022-07-24T15:11:55;1.02;;;0.80;;
37199;SDS011;23096;50.892;16.746;2022-07-24T15:14:22;2.87;;;1.07;;
37199;SDS011;23096;50.892;16.746;2022-07-24T15:16:48;0.80;;;0.70;;
37199;SDS011;23096;50.892;16.746;2022-07-24T15:19:14;1.52;;;0.93;;
37199;SDS011;23096;50.892;16.746;2022-07-24T15:21:40;1.22;;;1.12;;
37199;SDS011;23096;50.892;16.746;2022-07-24T15:24:07;1.00;;;0.98;;
37199;SDS011;23096;50.892;16.746;2022-07-24T15:26:34;0.82;;;0.82;;
37199;SDS011;23096;50.892;16.746;2022-07-24T15:29:01;1.15;;;1.02;;
37199;SDS011;23096;50.892;16.746;2022-07-24T15:31:28;1.20;;;1.02;;
37199;SDS011;23096;50.892;16.746;2022-07-24T15:33:54;0.98;;;0.80;;
37199;SDS011;23096;50.892;16.746;2022-07-24T15:36:20;2.25;;;0.80;;
37199;SDS011;23096;50.892;16.746;2022-07-24T15:38:46;2.83;;;0.98;;
37199;SDS011;23096;50.892;16.746;2022-07-24T15:41:12;1.50;;;0.90;;
37199;SDS011;23096;50.892;16.746;2022-07-24T15:43:39;1.05;;;0.80;;
37199;SDS011;23096;50.892;16.746;2022-07-24T15:46:05;1.12;;;1.02;;
37199;SDS011;23096;50.892;16.746;2022-07-24T15:48:32;2.75;;;1.20;;
37199;SDS011;23096;50.892;16.746;2022-07-24T15:50:58;1.10;;;0.80;;